createdAt,value
2023-11-30T00:01:44.591Z,740.10
2023-11-30T00:11:46.188Z,733.03
2023-11-30T00:21:47.692Z,733.88
2023-11-30T00:31:49.181Z,731.53
2023-11-30T00:41:50.736Z,734.85
2023-11-30T00:51:52.285Z,732.67
2023-11-30T01:01:53.866Z,732.55
2023-11-30T01:11:55.402Z,732.00
2023-11-30T01:21:57.650Z,732.33
2023-11-30T01:31:59.159Z,729.53
2023-11-30T01:42:01.946Z,730.72
2023-11-30T01:52:04.320Z,734.38
2023-11-30T02:02:05.955Z,725.13
2023-11-30T02:12:07.835Z,721.13
2023-11-30T02:22:09.306Z,715.58
2023-11-30T02:32:10.779Z,713.53
2023-11-30T02:42:12.313Z,700.97
2023-11-30T02:52:13.818Z,711.72
2023-11-30T03:02:15.445Z,709.67
2023-11-30T03:12:17.283Z,711.97
2023-11-30T03:22:18.788Z,706.67
2023-11-30T03:32:20.229Z,707.22
2023-11-30T03:42:21.754Z,705.50
2023-11-30T03:52:23.273Z,703.42
2023-11-30T04:02:24.802Z,707.67
2023-11-30T04:12:26.475Z,706.72
2023-11-30T04:22:27.941Z,700.25
2023-11-30T04:32:29.403Z,705.88
2023-11-30T04:42:30.970Z,700.30
2023-11-30T04:52:32.423Z,700.78
2023-11-30T05:02:36.693Z,702.83
2023-11-30T05:12:38.229Z,703.20
2023-11-30T05:22:39.719Z,703.03
2023-11-30T05:32:42.002Z,707.83
2023-11-30T05:42:43.482Z,702.15
2023-11-30T05:52:44.962Z,717.08
2023-11-30T06:02:46.482Z,718.17
2023-11-30T06:12:47.989Z,721.38
2023-11-30T06:22:49.457Z,719.67
2023-11-30T06:32:50.917Z,722.33
2023-11-30T06:42:52.386Z,720.00
2023-11-30T06:52:53.868Z,716.22
2023-11-30T07:02:55.377Z,716.42
2023-11-30T07:12:56.863Z,712.45
2023-11-30T07:22:58.686Z,712.88
2023-11-30T07:33:00.586Z,714.53
2023-11-30T07:43:02.393Z,713.05
2023-11-30T07:53:05.758Z,710.53
2023-11-30T08:03:07.382Z,710.55
2023-11-30T08:13:11.690Z,729.70
2023-11-30T08:23:13.157Z,714.28
2023-11-30T08:33:14.678Z,713.08
2023-11-30T08:43:16.952Z,714.22
2023-11-30T08:53:18.442Z,711.63
2023-11-30T09:03:19.920Z,717.00
2023-11-30T09:13:21.369Z,715.60
2023-11-30T09:23:22.865Z,719.70
2023-11-30T09:33:24.358Z,708.80
2023-11-30T09:43:25.824Z,712.05
2023-11-30T09:53:28.403Z,714.45
2023-11-30T10:03:36.151Z,715.55
2023-11-30T10:13:37.754Z,716.60
2023-11-30T10:23:39.218Z,718.28
2023-11-30T10:33:41.430Z,720.13
2023-11-30T10:43:49.312Z,719.75
2023-11-30T10:54:14.430Z,724.10
2023-11-30T11:04:16.063Z,723.30
2023-11-30T11:14:31.247Z,724.63
2023-11-30T11:24:33.556Z,724.55
2023-11-30T11:34:35.071Z,718.10
2023-11-30T11:44:36.624Z,719.72
2023-11-30T11:54:38.101Z,724.55
2023-11-30T12:04:40.726Z,720.35
2023-11-30T12:14:42.200Z,713.78
2023-11-30T12:24:43.717Z,747.10
2023-11-30T12:34:45.348Z,732.40
2023-11-30T12:44:47.219Z,748.28
2023-11-30T12:54:52.256Z,729.78
2023-11-30T13:04:53.872Z,743.35
2023-11-30T13:14:57.349Z,745.75
2023-11-30T13:25:00.093Z,747.72
2023-11-30T13:35:02.216Z,754.95
2023-11-30T13:45:06.234Z,753.72
2023-11-30T13:55:07.852Z,750.90
2023-11-30T14:05:09.917Z,755.38
2023-11-30T14:15:12.398Z,751.25
2023-11-30T14:25:14.877Z,748.80
2023-11-30T14:35:16.408Z,751.63
2023-11-30T14:45:17.967Z,752.10
2023-11-30T14:55:19.613Z,747.47
2023-11-30T15:05:21.459Z,744.38
2023-11-30T15:15:22.995Z,744.53
2023-11-30T15:25:24.474Z,748.38
2023-11-30T15:35:25.990Z,746.47
2023-11-30T15:45:28.254Z,746.80
2023-11-30T15:55:29.752Z,743.45
2023-11-30T16:05:31.928Z,744.15
2023-11-30T16:15:33.422Z,744.90
2023-11-30T16:25:34.899Z,740.95
2023-11-30T16:35:36.372Z,740.58
2023-11-30T16:45:37.838Z,736.20
2023-11-30T16:55:39.295Z,736.17
2023-11-30T17:05:40.937Z,731.55
2023-11-30T17:15:42.417Z,723.17
2023-11-30T17:25:44.891Z,713.50
2023-11-30T17:35:46.399Z,734.40
2023-11-30T17:45:47.940Z,723.75
2023-11-30T17:55:49.423Z,723.85
2023-11-30T18:05:50.895Z,736.45
2023-11-30T18:15:54.148Z,733.45
2023-11-30T18:25:55.711Z,731.38
2023-11-30T18:35:57.602Z,728.70
2023-11-30T18:45:59.145Z,734.83
2023-11-30T18:56:01.534Z,736.13
2023-11-30T19:06:03.366Z,736.80
2023-11-30T19:16:05.286Z,736.67
2023-11-30T19:26:07.358Z,735.95
2023-11-30T19:36:09.521Z,738.20
2023-11-30T19:46:17.574Z,738.92
2023-11-30T19:56:19.053Z,738.10
2023-11-30T20:06:20.579Z,737.45
2023-11-30T20:16:22.096Z,734.50
2023-11-30T20:26:24.021Z,732.45
2023-11-30T20:36:26.019Z,733.75
2023-11-30T20:46:27.537Z,733.05
2023-11-30T20:56:29.028Z,733.05
2023-11-30T21:06:30.513Z,731.13
2023-11-30T21:16:32.010Z,731.35
2023-11-30T21:26:33.500Z,737.30
2023-11-30T21:36:42.150Z,735.15
2023-11-30T21:46:43.612Z,731.00
2023-11-30T21:56:45.062Z,730.83
2023-11-30T22:06:47.384Z,736.97
2023-11-30T22:16:48.956Z,725.15
2023-11-30T22:26:50.498Z,733.00
2023-11-30T22:36:51.974Z,729.63
2023-11-30T22:46:53.499Z,732.95
2023-11-30T22:56:55.017Z,724.33
2023-11-30T23:06:56.536Z,726.25
2023-11-30T23:16:58.013Z,723.22
2023-11-30T23:26:59.524Z,728.20
2023-11-30T23:37:01.032Z,726.03
2023-11-30T23:47:02.580Z,727.85
2023-11-30T23:57:04.432Z,728.67
